Time;durP1;ratioP1;P1;durP2;ratioP2;P2;SDS_P1;SDS_P2;PMS_P1;PMS_P2;Temp;Humidity;BMP_temperature;BMP_pressure;BME280_temperature;BME280_humidity;BME280_pressure;Samples;Min_cycle;Max_cycle;Signal;HPM_P1;HPM_P2
2021/05/30 00:01:06;;;;;;;3.55;1.80;;;8.00;99.90;;;;;;4972433;28;20401;-78
2021/05/30 00:03:32;;;;;;;1.97;1.87;;;8.00;99.90;;;;;;4972744;28;20470;-80
2021/05/30 00:05:58;;;;;;;1.70;1.60;;;7.90;99.90;;;;;;4985091;28;20399;-79
2021/05/30 00:08:23;;;;;;;2.05;1.80;;;7.90;99.90;;;;;;4986248;28;20398;-80
2021/05/30 00:10:49;;;;;;;2.00;1.90;;;7.90;99.90;;;;;;4989478;28;20494;-79
2021/05/30 00:13:15;;;;;;;2.13;1.88;;;7.90;99.90;;;;;;4971879;28;20398;-82
2021/05/30 00:15:42;;;;;;;2.03;1.83;;;7.90;99.90;;;;;;4980007;28;20397;-78
2021/05/30 00:18:19;;;;;;;1.88;1.77;;;7.90;99.90;;;;;;4948193;28;20386;-82
2021/05/30 00:20:45;;;;;;;2.03;1.90;;;7.90;99.90;;;;;;5010810;28;20424;-83
2021/05/30 00:23:10;;;;;;;1.90;1.80;;;7.90;99.90;;;;;;4976440;28;20420;-81
2021/05/30 00:25:36;;;;;;;3.07;1.83;;;7.80;99.90;;;;;;4997288;28;20410;-78
2021/05/30 00:28:02;;;;;;;1.80;1.70;;;7.80;99.90;;;;;;5014882;28;20387;-81
2021/05/30 00:30:27;;;;;;;1.92;1.83;;;7.80;99.90;;;;;;4994913;28;20823;-83
2021/05/30 00:32:53;;;;;;;2.10;1.90;;;7.70;99.90;;;;;;4972043;28;20393;-83
2021/05/30 00:35:19;;;;;;;1.85;1.75;;;7.70;99.90;;;;;;4975731;28;20410;-72
2021/05/30 00:37:45;;;;;;;1.90;1.70;;;7.70;99.90;;;;;;5018853;28;20478;-76
2021/05/30 00:40:10;;;;;;;4.00;2.00;;;7.70;99.90;;;;;;4979535;28;20916;-73
2021/05/30 00:42:36;;;;;;;1.90;1.80;;;7.70;99.90;;;;;;4989128;28;20473;-75
2021/05/30 00:45:02;;;;;;;2.03;1.87;;;7.60;99.90;;;;;;5015525;28;20393;-76
2021/05/30 00:47:28;;;;;;;2.17;2.00;;;7.60;99.90;;;;;;4994063;28;20435;-76
2021/05/30 00:49:54;;;;;;;1.65;1.55;;;7.50;99.90;;;;;;5008834;28;20416;-76
2021/05/30 00:52:19;;;;;;;1.90;1.80;;;7.50;99.90;;;;;;4975774;28;20400;-74
2021/05/30 00:54:45;;;;;;;1.70;1.60;;;7.50;99.90;;;;;;4991684;28;20970;-77
2021/05/30 00:57:11;;;;;;;1.80;1.70;;;7.50;99.90;;;;;;5011497;28;20395;-75
2021/05/30 00:59:37;;;;;;;2.20;2.00;;;7.40;99.90;;;;;;4997204;28;20393;-77
2021/05/30 01:02:03;;;;;;;2.47;2.15;;;7.30;99.90;;;;;;5012105;28;21280;-76
2021/05/30 01:04:29;;;;;;;2.15;1.95;;;7.40;99.90;;;;;;5007489;28;20826;-73
2021/05/30 01:06:57;;;;;;;2.20;1.88;;;7.30;99.90;;;;;;4989208;28;20505;-76
2021/05/30 01:09:26;;;;;;;2.22;1.75;;;7.30;99.90;;;;;;5002258;28;20410;-75
2021/05/30 01:11:52;;;;;;;2.80;1.92;;;7.20;99.90;;;;;;4998092;28;20413;-74
2021/05/30 01:14:18;;;;;;;2.03;1.92;;;7.20;99.90;;;;;;4974224;28;20420;-73
2021/05/30 01:16:44;;;;;;;2.10;2.00;;;7.20;99.90;;;;;;5017198;28;20391;-73
2021/05/30 01:19:10;;;;;;;2.73;1.70;;;7.20;99.90;;;;;;4998078;28;20392;-75
2021/05/30 01:21:36;;;;;;;2.37;2.17;;;7.00;99.90;;;;;;4991406;28;20408;-75
2021/05/30 01:24:01;;;;;;;1.80;1.70;;;7.00;99.90;;;;;;5007683;28;20396;-73
2021/05/30 01:26:27;;;;;;;2.03;1.83;;;7.00;99.90;;;;;;4989376;28;20393;-75
2021/05/30 01:28:53;;;;;;;2.17;1.97;;;6.90;99.90;;;;;;4991395;28;20385;-76
2021/05/30 01:31:19;;;;;;;2.50;1.80;;;6.90;99.90;;;;;;4973858;28;20777;-80
2021/05/30 01:33:45;;;;;;;2.08;1.90;;;6.80;99.90;;;;;;4985096;28;20479;-75
2021/05/30 01:36:10;;;;;;;2.00;1.90;;;6.80;99.90;;;;;;4981109;28;20506;-75
2021/05/30 01:38:36;;;;;;;2.00;1.88;;;6.80;99.90;;;;;;4992534;28;20405;-75
2021/05/30 01:41:02;;;;;;;2.10;1.90;;;6.80;99.90;;;;;;4975124;28;20397;-73
2021/05/30 01:43:28;;;;;;;2.20;2.00;;;6.80;99.90;;;;;;4971282;28;20391;-76
2021/05/30 01:45:54;;;;;;;2.60;2.13;;;6.70;99.90;;;;;;4988331;28;20391;-76
2021/05/30 01:48:19;;;;;;;1.95;1.85;;;6.60;99.90;;;;;;4991413;28;21029;-74
2021/05/30 01:50:48;;;;;;;3.03;2.22;;;6.50;99.90;;;;;;4996552;28;20401;-77
2021/05/30 01:53:15;;;;;;;2.10;1.90;;;6.60;99.90;;;;;;4990810;28;20774;-75
2021/05/30 01:58:22;;;;;;;2.17;1.95;;;6.40;99.90;;;;;;5023137;28;20432;-73
2021/05/30 02:00:49;;;;;;;3.73;2.20;;;6.30;99.90;;;;;;4973099;28;20846;-75
2021/05/30 02:03:15;;;;;;;2.80;2.10;;;6.20;99.90;;;;;;4970427;28;20425;-75
2021/05/30 02:05:41;;;;;;;2.00;1.90;;;6.20;99.90;;;;;;4992707;28;20957;-76
2021/05/30 02:08:08;;;;;;;1.95;1.85;;;6.20;99.90;;;;;;4995574;28;20393;-76
2021/05/30 02:10:38;;;;;;;2.00;1.80;;;6.10;99.90;;;;;;4986787;28;20779;-75
2021/05/30 02:13:05;;;;;;;2.20;1.97;;;6.00;99.90;;;;;;4990762;28;20434;-76
2021/05/30 02:15:30;;;;;;;2.13;1.80;;;5.90;99.90;;;;;;4979716;28;20413;-76
2021/05/30 02:17:56;;;;;;;2.07;1.87;;;5.90;99.90;;;;;;4996269;28;20389;-76
2021/05/30 02:20:33;;;;;;;3.15;2.20;;;6.00;99.90;;;;;;5006744;28;20393;-73
2021/05/30 02:22:58;;;;;;;2.53;2.33;;;5.80;99.90;;;;;;4974387;28;20901;-77
2021/05/30 02:25:25;;;;;;;3.77;1.93;;;5.80;99.90;;;;;;5003593;28;20389;-76
2021/05/30 02:27:51;;;;;;;2.08;1.90;;;5.70;99.90;;;;;;4989934;28;20409;-77
2021/05/30 02:30:18;;;;;;;1.83;1.73;;;5.70;99.90;;;;;;4992110;28;21148;-78
2021/05/30 02:32:44;;;;;;;2.13;2.00;;;5.70;99.90;;;;;;5003380;28;20401;-76
2021/05/30 02:35:09;;;;;;;2.28;2.08;;;5.70;99.90;;;;;;4970049;28;20383;-76
2021/05/30 02:37:35;;;;;;;2.30;2.10;;;5.50;99.90;;;;;;5008500;28;20393;-77
2021/05/30 02:40:01;;;;;;;1.90;1.80;;;5.50;99.90;;;;;;4990444;28;20393;-75
2021/05/30 02:42:26;;;;;;;2.45;2.25;;;5.50;99.90;;;;;;4973447;28;20393;-75
2021/05/30 02:44:52;;;;;;;4.27;2.10;;;5.50;99.90;;;;;;4985636;28;20410;-75
2021/05/30 02:47:18;;;;;;;2.20;2.05;;;5.50;99.90;;;;;;4989511;28;20407;-78
2021/05/30 02:49:43;;;;;;;1.90;1.80;;;5.40;99.90;;;;;;5004383;28;20534;-75
2021/05/30 02:52:09;;;;;;;2.08;1.90;;;5.30;99.90;;;;;;4973134;28;20821;-76
2021/05/30 02:54:35;;;;;;;2.10;1.80;;;5.30;99.90;;;;;;4973825;28;20774;-73
2021/05/30 02:57:00;;;;;;;2.33;2.13;;;5.30;99.90;;;;;;4989254;28;20504;-76
2021/05/30 02:59:26;;;;;;;1.98;1.85;;;5.30;99.90;;;;;;4987845;28;20825;-77
2021/05/30 03:01:52;;;;;;;2.33;2.13;;;5.30;99.90;;;;;;4963292;28;20397;-75
2021/05/30 03:04:18;;;;;;;1.85;1.75;;;5.20;99.90;;;;;;4969162;28;20441;-75
2021/05/30 03:06:44;;;;;;;2.37;2.17;;;5.20;99.90;;;;;;5030355;28;20395;-75
2021/05/30 03:09:10;;;;;;;2.03;1.93;;;5.20;99.90;;;;;;5004356;28;20398;-76
2021/05/30 03:11:35;;;;;;;4.03;2.17;;;5.10;99.90;;;;;;4995062;28;20409;-73
2021/05/30 03:14:01;;;;;;;2.40;2.23;;;5.10;99.90;;;;;;4972636;28;20403;-78
2021/05/30 03:16:27;;;;;;;4.95;2.20;;;5.10;99.90;;;;;;4971928;28;20454;-76
2021/05/30 03:18:52;;;;;;;2.70;2.47;;;5.10;99.90;;;;;;5004309;28;20976;-73
2021/05/30 03:21:18;;;;;;;2.27;2.07;;;5.10;99.90;;;;;;5005921;28;20458;-75
2021/05/30 03:23:44;;;;;;;2.25;2.05;;;5.10;99.90;;;;;;4995750;28;20412;-77
2021/05/30 03:26:10;;;;;;;2.10;2.00;;;5.00;99.90;;;;;;4984436;28;20470;-75
2021/05/30 03:28:35;;;;;;;2.42;2.22;;;5.00;99.90;;;;;;5016671;28;20393;-76
2021/05/30 03:31:01;;;;;;;1.98;1.88;;;4.90;99.90;;;;;;4996012;28;20951;-74
2021/05/30 03:33:27;;;;;;;2.30;2.10;;;5.00;99.90;;;;;;4982353;28;20944;-74
2021/05/30 03:35:56;;;;;;;5.40;2.42;;;5.00;99.90;;;;;;4993018;28;20622;-75
2021/05/30 03:38:23;;;;;;;2.42;2.22;;;5.00;99.90;;;;;;5005309;28;20406;-76
2021/05/30 03:41:01;;;;;;;3.90;2.28;;;5.00;99.90;;;;;;4988626;28;20429;-75
2021/05/30 03:43:27;;;;;;;2.22;2.10;;;5.00;99.90;;;;;;4971398;28;20436;-75
2021/05/30 03:45:53;;;;;;;2.05;1.95;;;5.10;99.90;;;;;;4971583;28;20419;-75
2021/05/30 03:48:18;;;;;;;2.38;2.10;;;5.10;99.90;;;;;;4988629;28;20405;-76
2021/05/30 03:50:49;;;;;;;2.20;2.10;;;5.20;99.90;;;;;;4988684;28;20418;-74
2021/05/30 03:53:18;;;;;;;2.17;2.07;;;5.20;99.90;;;;;;5005230;28;20403;-74
2021/05/30 03:55:44;;;;;;;2.97;2.47;;;5.30;99.90;;;;;;4993180;28;20406;-78
2021/05/30 03:58:10;;;;;;;2.50;2.28;;;5.30;99.90;;;;;;5005848;28;20394;-73
2021/05/30 04:00:35;;;;;;;2.47;2.27;;;5.50;99.90;;;;;;5014404;28;20838;-74
2021/05/30 04:03:01;;;;;;;3.20;2.38;;;5.60;99.90;;;;;;4992549;28;20405;-76
2021/05/30 04:05:27;;;;;;;2.70;2.50;;;5.80;99.90;;;;;;4990083;28;20505;-76
2021/05/30 04:07:52;;;;;;;2.97;2.70;;;5.90;99.90;;;;;;5001429;28;20403;-80
2021/05/30 04:10:18;;;;;;;3.10;2.85;;;6.00;99.90;;;;;;4999182;28;20400;-75
2021/05/30 04:12:44;;;;;;;2.50;2.30;;;6.00;99.90;;;;;;4995783;28;20450;-74
2021/05/30 04:15:11;;;;;;;2.60;2.40;;;6.10;99.90;;;;;;4989477;28;20752;-75
2021/05/30 04:17:37;;;;;;;2.63;2.42;;;6.20;99.90;;;;;;4991795;28;20405;-75
2021/05/30 04:20:08;;;;;;;2.25;2.15;;;6.20;99.90;;;;;;4995117;28;20400;-75
2021/05/30 04:22:34;;;;;;;2.57;2.37;;;6.40;99.90;;;;;;4976539;28;20397;-77
2021/05/30 04:25:00;;;;;;;2.92;2.60;;;6.50;99.90;;;;;;4962030;28;20409;-78
2021/05/30 04:27:26;;;;;;;2.83;2.63;;;6.60;99.90;;;;;;5008022;28;20401;-76
2021/05/30 04:29:51;;;;;;;2.73;2.53;;;6.80;99.90;;;;;;4991304;28;20500;-76
2021/05/30 04:32:17;;;;;;;2.50;2.30;;;6.90;99.90;;;;;;5000601;28;20385;-75
2021/05/30 04:34:43;;;;;;;3.60;2.80;;;7.00;99.90;;;;;;4975480;28;20919;-74
2021/05/30 04:37:09;;;;;;;2.67;2.47;;;7.10;99.90;;;;;;5016356;28;20914;-75
2021/05/30 04:39:35;;;;;;;3.42;3.13;;;7.30;99.90;;;;;;4980322;28;20395;-72
2021/05/30 04:42:03;;;;;;;2.70;2.50;;;7.30;99.90;;;;;;4975039;28;20862;-75
2021/05/30 04:44:28;;;;;;;2.53;2.33;;;7.50;99.90;;;;;;4969564;28;20398;-74
2021/05/30 04:46:54;;;;;;;4.23;2.67;;;7.60;99.90;;;;;;4973903;28;20461;-73
2021/05/30 04:49:20;;;;;;;3.00;2.78;;;7.80;99.90;;;;;;5011167;28;20461;-74
2021/05/30 04:51:45;;;;;;;3.63;2.63;;;7.90;99.90;;;;;;5006810;28;20413;-75
2021/05/30 04:54:11;;;;;;;2.65;2.45;;;8.00;99.90;;;;;;4972495;28;20899;-74
2021/05/30 04:56:37;;;;;;;3.90;3.20;;;8.10;99.90;;;;;;4972683;28;20399;-79
2021/05/30 04:59:02;;;;;;;2.92;2.72;;;8.20;99.90;;;;;;4997141;28;20400;-76
2021/05/30 05:01:28;;;;;;;2.92;2.72;;;8.30;99.90;;;;;;4991875;28;20397;-75
2021/05/30 05:03:54;;;;;;;2.87;2.67;;;8.50;99.90;;;;;;5008729;28;20395;-73
2021/05/30 05:06:19;;;;;;;2.70;2.50;;;8.60;99.90;;;;;;4992187;28;20416;-75
2021/05/30 05:08:46;;;;;;;3.07;2.77;;;8.90;99.90;;;;;;4974833;28;20409;-78
2021/05/30 05:11:12;;;;;;;2.85;2.63;;;9.00;99.90;;;;;;5008099;28;20421;-76
2021/05/30 05:13:37;;;;;;;2.80;2.60;;;9.20;99.90;;;;;;4991766;28;20397;-76
2021/05/30 05:16:03;;;;;;;2.70;2.50;;;9.30;99.90;;;;;;4991096;28;20485;-77
2021/05/30 05:18:30;;;;;;;3.10;2.80;;;9.50;99.90;;;;;;4992149;28;20408;-76
2021/05/30 05:20:56;;;;;;;3.50;3.20;;;9.70;99.90;;;;;;4975579;28;20401;-76
2021/05/30 05:23:22;;;;;;;3.58;3.10;;;9.80;99.90;;;;;;4975601;28;20524;-76
2021/05/30 05:25:56;;;;;;;4.47;3.00;;;9.80;99.90;;;;;;4975943;28;20393;-75
2021/05/30 05:28:22;;;;;;;2.90;2.70;;;10.00;99.90;;;;;;4975811;28;20405;-73
2021/05/30 05:30:49;;;;;;;3.55;3.08;;;10.00;99.90;;;;;;4971824;28;20419;-81
2021/05/30 05:33:15;;;;;;;3.25;2.95;;;10.10;99.90;;;;;;4989235;28;20396;-75
2021/05/30 05:35:41;;;;;;;2.87;2.67;;;10.30;99.90;;;;;;4973172;28;20411;-75
2021/05/30 05:38:06;;;;;;;2.80;2.60;;;10.50;99.90;;;;;;5014435;28;20417;-75
2021/05/30 05:40:32;;;;;;;2.60;2.40;;;10.70;99.90;;;;;;4981903;28;20397;-75
2021/05/30 05:42:58;;;;;;;6.72;3.10;;;10.80;99.90;;;;;;4988431;28;20418;-84
2021/05/30 05:45:24;;;;;;;2.92;2.72;;;10.90;99.90;;;;;;4993193;28;20397;-77
2021/05/30 05:47:50;;;;;;;3.40;2.63;;;11.00;99.90;;;;;;4991278;28;20397;-75
2021/05/30 05:50:16;;;;;;;2.67;2.47;;;11.20;99.90;;;;;;4975590;28;20423;-80
2021/05/30 05:52:42;;;;;;;3.05;2.75;;;11.40;99.90;;;;;;4991019;28;20909;-77
2021/05/30 05:55:09;;;;;;;3.03;2.75;;;11.60;99.90;;;;;;4975377;28;20912;-76
2021/05/30 05:57:35;;;;;;;2.53;2.33;;;11.70;99.90;;;;;;4980402;28;20424;-76
2021/05/30 06:00:03;;;;;;;2.90;2.63;;;11.80;99.90;;;;;;4984848;28;20782;-75
2021/05/30 06:02:35;;;;;;;2.90;2.50;;;11.90;99.90;;;;;;5007113;28;20881;-75
2021/05/30 06:05:01;;;;;;;2.30;2.10;;;12.10;99.90;;;;;;4973892;28;20415;-82
2021/05/30 06:07:27;;;;;;;4.30;2.30;;;12.10;99.90;;;;;;4988243;28;20400;-82
2021/05/30 06:09:52;;;;;;;2.10;1.90;;;12.30;99.90;;;;;;4975401;28;20429;-74
2021/05/30 06:12:18;;;;;;;2.47;2.00;;;12.50;99.90;;;;;;4974320;28;20898;-76
2021/05/30 06:14:45;;;;;;;2.35;1.80;;;12.80;99.90;;;;;;4991057;28;20399;-75
2021/05/30 06:17:11;;;;;;;2.22;2.03;;;13.00;99.90;;;;;;4973805;28;20461;-76
2021/05/30 06:19:37;;;;;;;1.80;1.70;;;12.90;99.90;;;;;;5008246;28;20395;-83
2021/05/30 06:22:03;;;;;;;2.27;2.00;;;12.90;99.90;;;;;;4996238;28;20838;-82
2021/05/30 06:24:29;;;;;;;2.43;1.93;;;12.80;99.90;;;;;;4991942;28;20384;-78
2021/05/30 06:26:55;;;;;;;2.20;1.88;;;12.80;99.90;;;;;;4990876;28;20404;-76
2021/05/30 06:29:21;;;;;;;1.92;1.70;;;12.90;99.90;;;;;;4990890;28;20428;-75
2021/05/30 06:31:47;;;;;;;1.48;1.38;;;13.20;99.90;;;;;;4957028;28;20449;-77
2021/05/30 06:34:15;;;;;;;1.80;1.70;;;13.50;99.90;;;;;;4990022;28;20413;-74
2021/05/30 06:36:42;;;;;;;1.38;1.30;;;13.60;99.90;;;;;;5015362;28;20908;-74
2021/05/30 06:39:07;;;;;;;2.10;1.60;;;13.50;99.90;;;;;;5020263;28;21053;-73
2021/05/30 06:41:34;;;;;;;1.85;1.50;;;13.60;99.90;;;;;;5000870;28;20400;-74
2021/05/30 06:44:00;;;;;;;1.50;1.40;;;13.70;99.90;;;;;;5003923;28;20412;-79
2021/05/30 06:46:26;;;;;;;1.80;1.67;;;13.70;99.90;;;;;;5014057;28;20399;-78
2021/05/30 06:48:52;;;;;;;2.00;1.70;;;13.80;99.90;;;;;;5005113;28;20401;-77
2021/05/30 06:51:20;;;;;;;1.70;1.60;;;13.60;99.90;;;;;;4968427;28;20397;-75
2021/05/30 06:53:46;;;;;;;1.60;1.50;;;13.40;99.90;;;;;;4970409;28;20406;-79
2021/05/30 06:56:12;;;;;;;1.15;1.15;;;13.40;99.90;;;;;;4970119;28;20406;-79
2021/05/30 06:58:39;;;;;;;6.10;1.50;;;13.50;99.90;;;;;;4976075;28;20633;-74
2021/05/30 07:01:04;;;;;;;1.60;1.30;;;13.50;99.90;;;;;;5007225;28;20921;-80
2021/05/30 07:03:30;;;;;;;1.40;1.33;;;13.50;99.90;;;;;;5005142;28;20401;-78
2021/05/30 07:05:57;;;;;;;1.30;1.20;;;13.60;99.90;;;;;;4987265;28;20438;-79
2021/05/30 07:08:23;;;;;;;1.20;1.10;;;13.60;99.90;;;;;;4999104;28;20520;-82
2021/05/30 07:10:48;;;;;;;1.30;1.20;;;13.70;99.90;;;;;;4972105;28;20417;-80
2021/05/30 07:13:14;;;;;;;1.15;1.15;;;13.70;99.90;;;;;;4969718;28;20396;-78
2021/05/30 07:15:40;;;;;;;1.53;1.43;;;13.70;99.90;;;;;;4989387;28;20909;-77
2021/05/30 07:18:05;;;;;;;1.38;1.17;;;13.70;99.90;;;;;;4989622;28;20392;-76
2021/05/30 07:20:31;;;;;;;1.10;1.10;;;13.90;99.90;;;;;;4997128;28;20398;-75
2021/05/30 07:22:57;;;;;;;1.20;1.20;;;13.90;99.90;;;;;;4989900;28;20400;-74
2021/05/30 07:25:22;;;;;;;1.40;1.30;;;14.00;99.90;;;;;;4986227;28;20394;-71
2021/05/30 07:27:50;;;;;;;1.50;1.27;;;13.90;99.90;;;;;;4986882;28;20398;-73
2021/05/30 07:30:16;;;;;;;1.20;1.10;;;13.90;99.90;;;;;;4989536;28;20412;-77
2021/05/30 07:32:42;;;;;;;2.53;1.25;;;14.00;99.90;;;;;;4973511;28;21673;-76
2021/05/30 07:35:08;;;;;;;1.30;1.20;;;14.00;99.90;;;;;;4974426;28;20389;-76
2021/05/30 07:37:34;;;;;;;1.50;1.40;;;13.90;99.90;;;;;;4978465;28;20906;-81
2021/05/30 07:39:59;;;;;;;1.40;1.30;;;13.90;99.90;;;;;;4979708;28;20840;-76
2021/05/30 07:42:25;;;;;;;1.30;1.20;;;13.90;99.90;;;;;;5009299;28;20392;-76
2021/05/30 07:44:51;;;;;;;1.73;1.30;;;14.10;99.90;;;;;;4996630;28;20966;-77
2021/05/30 07:47:16;;;;;;;1.48;1.25;;;14.30;99.90;;;;;;4970536;28;20430;-76
2021/05/30 07:49:42;;;;;;;1.43;1.33;;;14.50;99.90;;;;;;4971843;28;20886;-73
2021/05/30 07:52:08;;;;;;;1.10;1.10;;;14.60;99.90;;;;;;4962727;28;20409;-76
2021/05/30 07:54:33;;;;;;;1.30;1.20;;;14.80;99.90;;;;;;4971393;28;20401;-75
2021/05/30 07:56:59;;;;;;;1.27;1.13;;;14.90;99.90;;;;;;4981898;28;20917;-75
2021/05/30 07:59:25;;;;;;;1.23;1.13;;;15.10;99.90;;;;;;4974509;28;20392;-76
2021/05/30 08:01:51;;;;;;;1.70;1.38;;;15.30;99.90;;;;;;4973522;28;20396;-75
2021/05/30 08:04:17;;;;;;;2.20;1.30;;;15.50;99.90;;;;;;4991441;28;20397;-75
2021/05/30 08:06:45;;;;;;;1.70;1.20;;;15.70;99.90;;;;;;4991121;28;20793;-75
2021/05/30 08:09:10;;;;;;;1.88;1.50;;;15.70;99.90;;;;;;4988936;28;20453;-76
2021/05/30 08:11:36;;;;;;;1.30;1.10;;;16.00;99.90;;;;;;4972410;28;20411;-77
2021/05/30 08:14:02;;;;;;;1.00;1.00;;;16.10;99.90;;;;;;4973484;28;20484;-77
2021/05/30 08:16:27;;;;;;;0.90;0.90;;;16.30;99.90;;;;;;4974105;28;20401;-76
2021/05/30 08:18:53;;;;;;;1.40;1.30;;;16.40;99.90;;;;;;4997664;28;20854;-77
2021/05/30 08:21:23;;;;;;;1.80;1.40;;;16.70;99.90;;;;;;4990102;28;20416;-79
2021/05/30 08:23:49;;;;;;;1.27;1.17;;;16.60;99.90;;;;;;5007962;28;20405;-78
2021/05/30 08:26:16;;;;;;;1.48;1.10;;;16.40;99.90;;;;;;4968857;28;20401;-78
2021/05/30 08:28:42;;;;;;;1.33;1.23;;;16.40;99.90;;;;;;4988506;28;20916;-77
2021/05/30 08:31:08;;;;;;;2.10;1.20;;;16.80;99.90;;;;;;4972358;28;20432;-77
2021/05/30 08:33:34;;;;;;;1.20;1.20;;;16.50;99.90;;;;;;4971906;28;20415;-77
2021/05/30 08:36:00;;;;;;;1.50;1.10;;;16.80;99.90;;;;;;4971778;28;20388;-77
2021/05/30 08:38:28;;;;;;;1.30;1.20;;;16.80;99.90;;;;;;5003460;28;20452;-78
2021/05/30 08:40:55;;;;;;;1.13;1.02;;;16.70;99.90;;;;;;4997019;28;20430;-78
2021/05/30 08:43:21;;;;;;;1.35;1.25;;;16.80;99.90;;;;;;4986518;28;21343;-80
2021/05/30 08:45:46;;;;;;;1.47;1.37;;;17.10;99.90;;;;;;5005261;28;20409;-79
2021/05/30 08:48:12;;;;;;;1.27;1.17;;;17.10;99.90;;;;;;4970596;28;20777;-78
2021/05/30 08:50:38;;;;;;;1.60;1.50;;;17.00;99.90;;;;;;4994227;28;20417;-79
2021/05/30 08:53:04;;;;;;;1.45;1.35;;;16.90;99.90;;;;;;5007875;28;20388;-79
2021/05/30 08:55:30;;;;;;;1.13;1.13;;;16.90;99.90;;;;;;4980170;28;20431;-79
2021/05/30 08:57:57;;;;;;;1.25;1.20;;;17.20;99.90;;;;;;4970835;28;20392;-80
2021/05/30 09:00:28;;;;;;;1.70;1.30;;;17.40;99.90;;;;;;4993982;28;20892;-81
2021/05/30 09:03:13;;;;;;;1.30;1.20;;;17.90;99.90;;;;;;4968528;28;20412;-79
2021/05/30 09:05:41;;;;;;;1.40;1.30;;;18.00;99.90;;;;;;4987623;28;20405;-81
2021/05/30 09:08:08;;;;;;;2.30;1.37;;;17.90;99.90;;;;;;4966965;28;20415;-78
2021/05/30 09:10:34;;;;;;;1.83;1.33;;;17.90;99.90;;;;;;4993155;28;20898;-79
2021/05/30 09:13:16;;;;;;;1.33;1.23;;;18.30;99.90;;;;;;4978324;28;20399;-79
2021/05/30 09:18:27;;;;;;;1.00;1.00;;;18.90;99.90;;;;;;4998588;28;20401;-79
2021/05/30 09:20:57;;;;;;;1.95;1.23;;;18.80;99.90;;;;;;4978001;28;20401;-78
2021/05/30 09:23:32;;;;;;;1.23;1.13;;;18.30;99.90;;;;;;4985973;28;20762;-79
2021/05/30 09:26:17;;;;;;;1.20;1.20;;;17.90;99.90;;;;;;5026018;28;20551;-80
2021/05/30 09:29:09;;;;;;;1.80;1.38;;;17.70;99.90;;;;;;4959337;28;20533;-80
2021/05/30 09:31:55;;;;;;;1.33;1.10;;;17.60;99.90;;;;;;4982712;28;20482;-78
2021/05/30 09:34:27;;;;;;;0.95;0.95;;;17.60;99.90;;;;;;4961432;28;20403;-78
2021/05/30 09:36:53;;;;;;;1.10;1.10;;;17.90;99.90;;;;;;4989730;28;20799;-78
2021/05/30 09:39:43;;;;;;;1.20;1.10;;;18.20;99.90;;;;;;4983524;28;20388;-78
2021/05/30 09:42:36;;;;;;;0.80;0.80;;;17.90;99.90;;;;;;4996483;28;20402;-77
2021/05/30 09:45:09;;;;;;;1.00;1.00;;;17.80;99.90;;;;;;4986903;28;20405;-77
2021/05/30 09:47:45;;;;;;;1.00;1.00;;;18.10;99.90;;;;;;5003233;28;20409;-78
2021/05/30 09:50:14;;;;;;;1.20;1.10;;;18.80;99.90;;;;;;5006285;28;20441;-76
2021/05/30 09:52:43;;;;;;;3.10;1.00;;;18.90;99.90;;;;;;4994785;28;20389;-77
2021/05/30 09:55:16;;;;;;;1.38;1.17;;;18.80;99.90;;;;;;5008334;28;20391;-77
2021/05/30 09:57:42;;;;;;;1.50;1.17;;;18.70;99.90;;;;;;4985676;28;20459;-77
2021/05/30 10:00:20;;;;;;;0.98;0.98;;;18.60;99.90;;;;;;4973028;28;20405;-77
2021/05/30 10:02:45;;;;;;;1.40;1.30;;;18.80;99.90;;;;;;4974765;28;20403;-77
2021/05/30 10:05:11;;;;;;;1.37;1.27;;;19.00;99.90;;;;;;4979362;28;20399;-77
2021/05/30 10:07:37;;;;;;;1.30;1.20;;;18.70;99.90;;;;;;4981813;28;20451;-77
2021/05/30 10:10:03;;;;;;;0.98;0.98;;;18.60;99.90;;;;;;4992165;28;21014;-76
2021/05/30 10:12:29;;;;;;;1.10;1.10;;;18.40;99.90;;;;;;4973764;28;20401;-77
2021/05/30 10:14:55;;;;;;;0.93;0.90;;;18.60;99.90;;;;;;4973267;28;20396;-76
2021/05/30 10:17:21;;;;;;;1.20;1.10;;;18.90;99.90;;;;;;4972466;28;20428;-77
2021/05/30 10:19:46;;;;;;;1.42;1.20;;;19.50;99.90;;;;;;4976676;28;20391;-77
2021/05/30 10:22:12;;;;;;;1.20;1.10;;;20.00;99.90;;;;;;4987727;28;20747;-78
2021/05/30 10:24:39;;;;;;;1.30;1.20;;;20.20;99.90;;;;;;4972031;28;20846;-77
2021/05/30 10:27:26;;;;;;;1.10;1.10;;;20.00;99.90;;;;;;4971109;28;20400;-78
2021/05/30 10:30:07;;;;;;;1.20;1.10;;;20.10;99.90;;;;;;4992312;28;20414;-78
2021/05/30 10:32:34;;;;;;;1.20;1.10;;;20.20;99.90;;;;;;5005516;28;20435;-77
2021/05/30 10:35:24;;;;;;;1.08;1.08;;;20.30;99.90;;;;;;4989261;28;21080;-78
2021/05/30 10:37:50;;;;;;;2.40;1.23;;;20.10;99.90;;;;;;4992857;28;20489;-77
2021/05/30 10:40:22;;;;;;;1.15;1.13;;;19.70;99.90;;;;;;5001659;28;20414;-77
2021/05/30 10:43:08;;;;;;;1.30;1.20;;;19.60;99.90;;;;;;5001099;28;20403;-77
2021/05/30 10:45:35;;;;;;;0.90;0.90;;;19.60;99.90;;;;;;5003465;28;20401;-76
2021/05/30 10:48:03;;;;;;;1.15;1.08;;;19.60;99.90;;;;;;4985351;28;20503;-77
2021/05/30 10:50:39;;;;;;;1.20;1.20;;;19.90;99.90;;;;;;5003607;28;20782;-77
2021/05/30 10:53:44;;;;;;;1.15;1.05;;;19.70;99.90;;;;;;5020819;28;20400;-77
2021/05/30 10:56:33;;;;;;;1.00;1.00;;;19.30;99.90;;;;;;4979295;28;20406;-78
2021/05/30 10:59:11;;;;;;;1.20;1.10;;;19.80;99.90;;;;;;4988167;28;20485;-78
2021/05/30 11:01:40;;;;;;;1.27;1.17;;;20.00;99.90;;;;;;4988502;28;20390;-77
2021/05/30 11:04:24;;;;;;;1.55;1.27;;;20.10;99.90;;;;;;4985604;28;20493;-78
2021/05/30 11:07:17;;;;;;;1.40;1.30;;;20.10;98.30;;;;;;4982663;28;20400;-79
2021/05/30 11:09:53;;;;;;;1.40;1.30;;;20.70;99.90;;;;;;4953525;28;20442;-78
2021/05/30 11:12:29;;;;;;;1.33;1.20;;;21.00;98.60;;;;;;5010366;28;20475;-78
2021/05/30 11:15:11;;;;;;;1.00;1.00;;;21.00;97.70;;;;;;5008295;28;20397;-79
2021/05/30 11:17:38;;;;;;;1.10;1.00;;;20.50;98.20;;;;;;4992348;28;20905;-78
2021/05/30 11:20:05;;;;;;;1.52;1.42;;;20.60;98.10;;;;;;4992078;28;20376;-78
2021/05/30 11:23:02;;;;;;;0.90;0.90;;;20.70;97.40;;;;;;4984756;28;20392;-80
2021/05/30 11:25:48;;;;;;;1.10;1.10;;;20.70;98.30;;;;;;4993830;28;20395;-79
2021/05/30 11:28:17;;;;;;;1.00;1.00;;;20.60;98.00;;;;;;4993288;28;20413;-80
2021/05/30 11:30:44;;;;;;;1.20;1.10;;;20.80;97.90;;;;;;4991136;28;20405;-78
2021/05/30 11:33:22;;;;;;;0.80;0.80;;;20.60;98.10;;;;;;5008127;28;20397;-79
2021/05/30 11:35:56;;;;;;;1.10;1.08;;;20.70;98.20;;;;;;5023696;28;20457;-78
2021/05/30 11:38:51;;;;;;;1.70;1.40;;;20.80;96.80;;;;;;4993073;28;20439;-78
2021/05/30 11:41:38;;;;;;;1.40;1.30;;;20.50;95.40;;;;;;4994985;28;20455;-80
2021/05/30 11:44:09;;;;;;;1.33;1.23;;;20.20;96.40;;;;;;4985088;28;20391;-79
2021/05/30 11:46:40;;;;;;;1.50;1.23;;;20.70;97.20;;;;;;5011946;28;20893;-78
2021/05/30 11:49:19;;;;;;;1.50;1.10;;;21.40;98.10;;;;;;4976870;28;20385;-79
2021/05/30 11:52:05;;;;;;;2.15;1.13;;;22.20;95.20;;;;;;4977031;28;20420;-78
2021/05/30 11:54:46;;;;;;;1.00;1.00;;;22.80;94.70;;;;;;4982651;28;20490;-78
2021/05/30 11:57:22;;;;;;;1.27;1.17;;;23.00;93.20;;;;;;4988198;28;20774;-77
2021/05/30 11:59:54;;;;;;;1.13;1.13;;;22.80;90.50;;;;;;4991593;28;20871;-79
2021/05/30 12:02:37;;;;;;;1.10;1.10;;;22.40;91.50;;;;;;4998240;28;20481;-80
2021/05/30 12:05:16;;;;;;;1.90;1.20;;;22.00;91.80;;;;;;4989018;28;20407;-79
2021/05/30 12:07:45;;;;;;;1.17;1.10;;;22.20;91.40;;;;;;4990317;28;20432;-79
2021/05/30 12:10:13;;;;;;;1.20;1.20;;;22.30;92.30;;;;;;4990213;28;20428;-80
2021/05/30 12:12:46;;;;;;;1.20;1.10;;;22.90;92.30;;;;;;4990318;28;20399;-78
2021/05/30 12:15:15;;;;;;;1.05;0.90;;;23.80;92.20;;;;;;4972358;28;20477;-79
2021/05/30 12:17:54;;;;;;;1.85;1.17;;;24.20;90.20;;;;;;4984566;28;20396;-78
2021/05/30 12:20:34;;;;;;;1.02;1.02;;;24.40;86.70;;;;;;5018596;28;20393;-79
2021/05/30 12:23:17;;;;;;;0.93;0.93;;;24.30;85.30;;;;;;4991294;28;20402;-78
2021/05/30 12:25:59;;;;;;;2.00;1.05;;;24.30;87.10;;;;;;5007402;28;20424;-78
2021/05/30 12:28:33;;;;;;;1.27;1.17;;;24.50;81.70;;;;;;4999145;28;20428;-78
2021/05/30 12:31:02;;;;;;;1.10;1.00;;;24.80;86.20;;;;;;4972539;28;20396;-78
2021/05/30 12:33:28;;;;;;;1.40;1.13;;;25.20;82.10;;;;;;4959526;28;20401;-79
2021/05/30 12:35:54;;;;;;;2.20;1.20;;;25.40;78.60;;;;;;4967935;28;20399;-79
2021/05/30 12:38:24;;;;;;;1.00;0.90;;;25.80;78.30;;;;;;4982115;28;20450;-79
2021/05/30 12:40:50;;;;;;;1.20;1.20;;;26.20;74.40;;;;;;4983028;28;20407;-78
2021/05/30 12:43:35;;;;;;;1.00;1.00;;;26.20;71.20;;;;;;4994810;28;20483;-79
2021/05/30 12:46:03;;;;;;;1.00;0.98;;;26.10;69.80;;;;;;4980824;28;20403;-79
2021/05/30 12:48:47;;;;;;;1.00;1.00;;;26.20;69.00;;;;;;5016771;28;20398;-79
2021/05/30 12:51:25;;;;;;;2.42;1.10;;;26.10;65.90;;;;;;5005987;28;20411;-79
2021/05/30 12:53:51;;;;;;;1.10;1.02;;;26.40;67.30;;;;;;5021367;28;20410;-79
2021/05/30 12:56:27;;;;;;;1.00;1.00;;;26.30;68.70;;;;;;5004285;28;20468;-78
2021/05/30 12:59:12;;;;;;;1.85;1.17;;;26.50;64.30;;;;;;4991133;28;20396;-78
2021/05/30 13:01:47;;;;;;;0.90;0.90;;;26.10;64.20;;;;;;4977769;28;20399;-78
2021/05/30 13:04:22;;;;;;;1.05;1.00;;;26.20;66.50;;;;;;4960783;28;21062;-79